createdAt,value
2023-09-18T00:00:02.916Z,0
2023-09-18T00:15:02.356Z,0
2023-09-18T00:30:02.860Z,0
2023-09-18T01:00:02.851Z,0
2023-09-18T01:15:02.083Z,0
2023-09-18T01:30:02.562Z,0
2023-09-18T01:45:03.000Z,0
2023-09-18T02:00:02.416Z,0
2023-09-18T02:15:02.843Z,0
2023-09-18T02:30:02.268Z,0
2023-09-18T02:45:02.865Z,0
2023-09-18T03:00:02.163Z,0
2023-09-18T03:15:02.618Z,0
2023-09-18T03:30:03.026Z,0
2023-09-18T03:45:02.449Z,0
2023-09-18T04:00:02.918Z,0
2023-09-18T04:15:02.337Z,0
2023-09-18T04:30:02.876Z,0
2023-09-18T04:45:02.241Z,0
2023-09-18T05:00:16.558Z,0
2023-09-18T05:15:03.125Z,0
2023-09-18T05:30:02.576Z,0
2023-09-18T05:45:02.992Z,6
2023-09-18T06:00:02.410Z,16
2023-09-18T06:15:02.920Z,18
2023-09-18T06:30:02.310Z,14
2023-09-18T06:45:03.140Z,17
2023-09-18T07:00:02.188Z,94
2023-09-18T07:15:02.637Z,90
2023-09-18T07:30:03.106Z,87
2023-09-18T07:45:02.525Z,74
2023-09-18T08:00:02.945Z,113
2023-09-18T08:15:02.374Z,114
2023-09-18T08:30:02.914Z,144
2023-09-18T08:45:02.256Z,156
2023-09-18T09:00:02.952Z,96
2023-09-18T09:15:02.223Z,146
2023-09-18T09:30:02.654Z,108
2023-09-18T09:45:03.032Z,160
2023-09-18T10:00:02.473Z,127
2023-09-18T10:15:03.363Z,291
2023-09-18T10:45:02.947Z,199
2023-09-18T11:00:02.302Z,228
2023-09-18T11:15:02.724Z,262
2023-09-18T11:30:03.132Z,317
2023-09-18T11:45:02.630Z,598
2023-09-18T12:00:03.061Z,588
2023-09-18T12:15:03.480Z,553
2023-09-18T12:30:02.953Z,524
2023-09-18T12:45:02.316Z,196
2023-09-18T13:00:02.975Z,150
2023-09-18T13:15:02.261Z,512
2023-09-18T13:30:02.672Z,445
2023-09-18T13:45:03.125Z,105
2023-09-18T14:00:02.672Z,189
2023-09-18T14:15:02.982Z,421
2023-09-18T14:30:02.456Z,264
2023-09-18T14:45:03.244Z,180
2023-09-18T15:15:02.790Z,280
2023-09-18T15:30:02.297Z,215
2023-09-18T15:45:02.632Z,135
2023-09-18T16:00:03.134Z,151
2023-09-18T16:15:02.462Z,116
2023-09-18T16:30:03.016Z,82
2023-09-18T16:45:02.348Z,53
2023-09-18T17:00:03.040Z,28
2023-09-18T17:15:02.216Z,1
2023-09-18T17:30:02.656Z,0
2023-09-18T17:45:03.112Z,0
2023-09-18T18:00:02.582Z,0
2023-09-18T18:15:03.045Z,0
2023-09-18T18:30:02.433Z,0
2023-09-18T18:45:03.059Z,0
2023-09-18T19:00:02.366Z,0
2023-09-18T19:15:04.637Z,0
2023-09-18T19:30:02.207Z,0
2023-09-18T19:45:02.677Z,0
2023-09-18T20:00:03.140Z,0
2023-09-18T20:15:02.569Z,0
2023-09-18T20:30:03.059Z,0
2023-09-18T20:45:02.500Z,0
2023-09-18T21:00:03.091Z,0
2023-09-18T21:15:02.323Z,0
2023-09-18T21:30:02.719Z,0
2023-09-18T21:45:03.180Z,0
2023-09-18T22:00:02.574Z,0
2023-09-18T22:30:02.672Z,0
2023-09-18T22:45:03.079Z,0
2023-09-18T23:00:02.373Z,0
2023-09-18T23:15:02.799Z,0
2023-09-18T23:30:02.219Z,0
2023-09-18T23:45:02.643Z,0
